Panamint Springs, California
Current Conditions -  °F | °C
As of 4:56 PM on Tuesday 21 Oct 2014 (Local Time) from KBIH Reporting Station
Clear Clear  
Wind Chill: 76°   Ceiling: Unl
Heat Index: 76°   Visibility: 10mi
Dew Point:   Wind: 10mph
Humidity: 6%   Direction: 170°S
Pressure: 29.89"   Gusts: NA
Location:  36.6126°N, 118.162°W
Report Text: KBIH 212356Z AUTO 17009KT 10SM CLR 24/M17 A2989 RMK AO2 SLP083 T02441167 10261 20206 56009
Loading
Personal Weather Stations






























Interactive Weather Map
Tropical Storm Tracking
New forecast layout! Learn more

10-Day Weather Forecast

Advertisements
Track Severe Weather on mobile